sensor_id;sensor_type;location;lat;lon;timestamp;pressure;altitude;pressure_sealevel;temperature;humidity
32181;BME280;19172;51.504;3.894;2022-08-05T00:01:17;101486.97;;;26.06;78.35
32181;BME280;19172;51.504;3.894;2022-08-05T00:03:48;101483.88;;;26.31;78.27
32181;BME280;19172;51.504;3.894;2022-08-05T00:06:17;101487.53;;;25.96;79.89
32181;BME280;19172;51.504;3.894;2022-08-05T00:08:49;101496.88;;;26.24;79.51
32181;BME280;19172;51.504;3.894;2022-08-05T00:11:17;101495.19;;;26.56;78.56
32181;BME280;19172;51.504;3.894;2022-08-05T00:13:47;101502.94;;;26.47;77.96
32181;BME280;19172;51.504;3.894;2022-08-05T00:16:19;101505.03;;;26.42;78.49
32181;BME280;19172;51.504;3.894;2022-08-05T00:19:03;101483.25;;;26.76;78.52
32181;BME280;19172;51.504;3.894;2022-08-05T00:21:31;101485.16;;;26.74;77.56
32181;BME280;19172;51.504;3.894;2022-08-05T00:24:02;101482.72;;;26.69;78.32
32181;BME280;19172;51.504;3.894;2022-08-05T00:26:31;101485.72;;;26.48;80.04
32181;BME280;19172;51.504;3.894;2022-08-05T00:28:59;101486.06;;;25.89;77.91
32181;BME280;19172;51.504;3.894;2022-08-05T00:31:27;101492.09;;;26.29;78.62
32181;BME280;19172;51.504;3.894;2022-08-05T00:34:09;101490.47;;;26.08;78.45
32181;BME280;19172;51.504;3.894;2022-08-05T00:36:57;101494.97;;;26.26;78.72
32181;BME280;19172;51.504;3.894;2022-08-05T00:39:38;101495.13;;;26.23;76.37
32181;BME280;19172;51.504;3.894;2022-08-05T00:42:11;101488.44;;;26.30;74.83
32181;BME280;19172;51.504;3.894;2022-08-05T00:44:39;101500.78;;;26.36;74.15
32181;BME280;19172;51.504;3.894;2022-08-05T00:47:06;101511.38;;;26.06;73.54
32181;BME280;19172;51.504;3.894;2022-08-05T00:49:34;101524.66;;;26.11;74.56
32181;BME280;19172;51.504;3.894;2022-08-05T00:52:11;101526.66;;;26.07;72.75
32181;BME280;19172;51.504;3.894;2022-08-05T00:54:39;101529.28;;;26.45;71.61
32181;BME280;19172;51.504;3.894;2022-08-05T00:57:06;101533.72;;;26.63;71.10
32181;BME280;19172;51.504;3.894;2022-08-05T00:59:35;101540.63;;;26.68;70.71
32181;BME280;19172;51.504;3.894;2022-08-05T01:02:11;101535.75;;;26.75;69.95
32181;BME280;19172;51.504;3.894;2022-08-05T01:04:39;101528.28;;;26.46;69.96
32181;BME280;19172;51.504;3.894;2022-08-05T01:07:08;101530.66;;;26.69;70.12
32181;BME280;19172;51.504;3.894;2022-08-05T01:09:40;101535.75;;;26.06;72.18
32181;BME280;19172;51.504;3.894;2022-08-05T01:12:12;101535.31;;;26.33;72.84
32181;BME280;19172;51.504;3.894;2022-08-05T01:14:56;101534.41;;;26.15;72.73
32181;BME280;19172;51.504;3.894;2022-08-05T01:17:32;101536.25;;;26.14;75.72
32181;BME280;19172;51.504;3.894;2022-08-05T01:20:29;101527.38;;;26.11;73.26
32181;BME280;19172;51.504;3.894;2022-08-05T01:28:44;101511.38;;;26.06;72.79
32181;BME280;19172;51.504;3.894;2022-08-05T01:31:44;101494.03;;;25.92;73.30
32181;BME280;19172;51.504;3.894;2022-08-05T01:37:18;101488.69;;;25.73;74.22
32181;BME280;19172;51.504;3.894;2022-08-05T01:39:53;101486.75;;;25.58;77.58
32181;BME280;19172;51.504;3.894;2022-08-05T01:42:26;101481.53;;;25.89;75.68
32181;BME280;19172;51.504;3.894;2022-08-05T01:44:58;101486.06;;;25.71;75.68
32181;BME280;19172;51.504;3.894;2022-08-05T01:47:31;101481.38;;;25.75;75.66
32181;BME280;19172;51.504;3.894;2022-08-05T01:50:30;101485.97;;;25.56;77.63
32181;BME280;19172;51.504;3.894;2022-08-05T01:53:02;101479.41;;;25.41;76.82
32181;BME280;19172;51.504;3.894;2022-08-05T01:55:32;101481.69;;;25.13;77.12
32181;BME280;19172;51.504;3.894;2022-08-05T01:58:05;101475.81;;;25.59;79.10
32181;BME280;19172;51.504;3.894;2022-08-05T02:00:44;101482.63;;;25.68;76.37
32181;BME280;19172;51.504;3.894;2022-08-05T02:03:44;101484.81;;;25.60;79.49
32181;BME280;19172;51.504;3.894;2022-08-05T02:06:14;101483.16;;;25.57;82.83
32181;BME280;19172;51.504;3.894;2022-08-05T02:09:00;101476.84;;;25.38;82.24
32181;BME280;19172;51.504;3.894;2022-08-05T02:11:40;101486.03;;;25.17;84.59
32181;BME280;19172;51.504;3.894;2022-08-05T02:14:18;101475.38;;;24.55;86.42
32181;BME280;19172;51.504;3.894;2022-08-05T02:16:52;101473.50;;;25.14;90.61
32181;BME280;19172;51.504;3.894;2022-08-05T02:22:16;101473.09;;;25.59;87.86
32181;BME280;19172;51.504;3.894;2022-08-05T02:25:01;101483.09;;;25.76;88.10
32181;BME280;19172;51.504;3.894;2022-08-05T02:27:35;101495.81;;;24.82;90.77
32181;BME280;19172;51.504;3.894;2022-08-05T02:30:29;101497.28;;;25.08;92.81
32181;BME280;19172;51.504;3.894;2022-08-05T02:32:59;101507.72;;;25.15;92.90
32181;BME280;19172;51.504;3.894;2022-08-05T02:35:32;101507.22;;;24.68;90.95
32181;BME280;19172;51.504;3.894;2022-08-05T02:38:06;101510.25;;;25.57;90.81
32181;BME280;19172;51.504;3.894;2022-08-05T02:40:41;101514.88;;;25.55;88.24
32181;BME280;19172;51.504;3.894;2022-08-05T02:43:14;101517.97;;;25.27;90.07
32181;BME280;19172;51.504;3.894;2022-08-05T02:45:46;101511.75;;;25.07;88.63
32181;BME280;19172;51.504;3.894;2022-08-05T02:48:24;101515.34;;;25.45;90.23
32181;BME280;19172;51.504;3.894;2022-08-05T02:51:01;101514.56;;;25.61;88.58
32181;BME280;19172;51.504;3.894;2022-08-05T02:53:30;101529.13;;;25.59;88.90
32181;BME280;19172;51.504;3.894;2022-08-05T02:56:08;101530.44;;;25.50;87.65
32181;BME280;19172;51.504;3.894;2022-08-05T02:58:43;101530.41;;;26.05;86.82
32181;BME280;19172;51.504;3.894;2022-08-05T03:01:16;101526.91;;;25.30;85.95
32181;BME280;19172;51.504;3.894;2022-08-05T03:03:50;101533.84;;;25.35;90.38
32181;BME280;19172;51.504;3.894;2022-08-05T03:06:30;101542.41;;;25.82;89.88
32181;BME280;19172;51.504;3.894;2022-08-05T03:09:18;101539.72;;;25.99;89.04
32181;BME280;19172;51.504;3.894;2022-08-05T03:11:53;101538.50;;;26.23;88.18
32181;BME280;19172;51.504;3.894;2022-08-05T03:14:24;101541.66;;;26.14;87.14
32181;BME280;19172;51.504;3.894;2022-08-05T03:16:53;101543.44;;;26.33;84.87
32181;BME280;19172;51.504;3.894;2022-08-05T03:19:20;101544.91;;;26.04;87.53
32181;BME280;19172;51.504;3.894;2022-08-05T03:22:00;101537.19;;;26.13;87.38
32181;BME280;19172;51.504;3.894;2022-08-05T03:24:27;101539.94;;;25.77;87.99
32181;BME280;19172;51.504;3.894;2022-08-05T03:26:57;101545.88;;;25.30;91.56
32181;BME280;19172;51.504;3.894;2022-08-05T03:29:26;101543.22;;;25.09;93.58
32181;BME280;19172;51.504;3.894;2022-08-05T03:32:12;101542.19;;;25.31;91.66
32181;BME280;19172;51.504;3.894;2022-08-05T03:34:42;101546.06;;;25.25;93.34
32181;BME280;19172;51.504;3.894;2022-08-05T03:37:17;101537.16;;;25.60;91.87
32181;BME280;19172;51.504;3.894;2022-08-05T03:39:57;101547.97;;;25.42;92.47
32181;BME280;19172;51.504;3.894;2022-08-05T03:42:29;101547.69;;;25.29;90.35
32181;BME280;19172;51.504;3.894;2022-08-05T03:44:59;101544.06;;;24.91;92.77
32181;BME280;19172;51.504;3.894;2022-08-05T03:47:28;101533.94;;;24.56;96.37
32181;BME280;19172;51.504;3.894;2022-08-05T03:49:57;101526.16;;;24.89;96.49
32181;BME280;19172;51.504;3.894;2022-08-05T03:52:28;101522.03;;;24.40;95.68
32181;BME280;19172;51.504;3.894;2022-08-05T03:55:16;101519.72;;;24.51;100.00
32181;BME280;19172;51.504;3.894;2022-08-05T03:58:10;101508.09;;;24.29;100.00
32181;BME280;19172;51.504;3.894;2022-08-05T04:00:40;101509.59;;;24.56;100.00
32181;BME280;19172;51.504;3.894;2022-08-05T04:03:12;101505.94;;;24.37;97.13
32181;BME280;19172;51.504;3.894;2022-08-05T04:05:43;101506.47;;;24.85;96.88
32181;BME280;19172;51.504;3.894;2022-08-05T04:08:13;101506.38;;;24.28;95.31
32181;BME280;19172;51.504;3.894;2022-08-05T04:10:49;101504.69;;;24.64;97.58
32181;BME280;19172;51.504;3.894;2022-08-05T04:13:17;101509.78;;;24.92;96.55
32181;BME280;19172;51.504;3.894;2022-08-05T04:15:45;101508.09;;;24.69;92.81
32181;BME280;19172;51.504;3.894;2022-08-05T04:18:22;101501.66;;;24.71;96.38
32181;BME280;19172;51.504;3.894;2022-08-05T04:20:55;101501.22;;;24.21;96.24
32181;BME280;19172;51.504;3.894;2022-08-05T04:23:26;101501.63;;;24.33;98.62
32181;BME280;19172;51.504;3.894;2022-08-05T04:26:14;101497.09;;;23.91;99.31
32181;BME280;19172;51.504;3.894;2022-08-05T04:28:44;101501.81;;;24.48;98.01
32181;BME280;19172;51.504;3.894;2022-08-05T04:31:13;101504.25;;;24.54;99.30
32181;BME280;19172;51.504;3.894;2022-08-05T04:33:41;101506.28;;;24.49;99.49
32181;BME280;19172;51.504;3.894;2022-08-05T04:36:21;101504.78;;;24.62;96.38
32181;BME280;19172;51.504;3.894;2022-08-05T04:39:05;101504.59;;;24.27;97.21
32181;BME280;19172;51.504;3.894;2022-08-05T04:41:33;101501.00;;;23.62;96.96
32181;BME280;19172;51.504;3.894;2022-08-05T04:44:03;101498.25;;;23.86;100.00
32181;BME280;19172;51.504;3.894;2022-08-05T04:46:36;101502.72;;;24.07;99.50
32181;BME280;19172;51.504;3.894;2022-08-05T04:49:05;101499.88;;;24.11;98.38
32181;BME280;19172;51.504;3.894;2022-08-05T04:51:34;101507.84;;;23.93;97.74
32181;BME280;19172;51.504;3.894;2022-08-05T04:54:02;101516.66;;;23.76;99.58
32181;BME280;19172;51.504;3.894;2022-08-05T04:56:29;101508.97;;;23.87;100.00
32181;BME280;19172;51.504;3.894;2022-08-05T04:59:01;101517.25;;;24.46;100.00
32181;BME280;19172;51.504;3.894;2022-08-05T05:01:44;101519.59;;;24.34;100.00
32181;BME280;19172;51.504;3.894;2022-08-05T05:04:31;101526.44;;;24.62;94.29
32181;BME280;19172;51.504;3.894;2022-08-05T05:07:00;101527.69;;;23.92;96.03
32181;BME280;19172;51.504;3.894;2022-08-05T05:09:28;101537.28;;;24.20;99.59
32181;BME280;19172;51.504;3.894;2022-08-05T05:11:56;101539.16;;;24.99;97.36
32181;BME280;19172;51.504;3.894;2022-08-05T05:14:28;101542.19;;;25.31;90.89
32181;BME280;19172;51.504;3.894;2022-08-05T05:16:59;101544.53;;;25.75;87.93
32181;BME280;19172;51.504;3.894;2022-08-05T05:19:27;101546.19;;;25.97;85.07
32181;BME280;19172;51.504;3.894;2022-08-05T05:22:03;101553.75;;;26.07;79.60
32181;BME280;19172;51.504;3.894;2022-08-05T05:24:49;101558.16;;;25.37;81.87
32181;BME280;19172;51.504;3.894;2022-08-05T05:27:27;101552.53;;;25.60;83.90
32181;BME280;19172;51.504;3.894;2022-08-05T05:30:09;101553.44;;;25.96;82.45
32181;BME280;19172;51.504;3.894;2022-08-05T05:32:42;101560.44;;;26.70;78.51
32181;BME280;19172;51.504;3.894;2022-08-05T05:35:10;101567.84;;;26.33;77.47
32181;BME280;19172;51.504;3.894;2022-08-05T05:37:55;101566.66;;;26.21;77.66
32181;BME280;19172;51.504;3.894;2022-08-05T05:40:28;101568.09;;;25.92;78.08
32181;BME280;19172;51.504;3.894;2022-08-05T05:42:56;101572.75;;;26.26;78.38
32181;BME280;19172;51.504;3.894;2022-08-05T05:45:24;101580.16;;;26.22;78.54
32181;BME280;19172;51.504;3.894;2022-08-05T05:47:52;101587.31;;;26.05;78.66
32181;BME280;19172;51.504;3.894;2022-08-05T05:50:31;101582.72;;;26.07;78.40
32181;BME280;19172;51.504;3.894;2022-08-05T05:52:59;101589.25;;;26.56;78.29
32181;BME280;19172;51.504;3.894;2022-08-05T05:55:27;101589.09;;;26.42;74.08
32181;BME280;19172;51.504;3.894;2022-08-05T05:58:15;101585.25;;;26.63;73.47
32181;BME280;19172;51.504;3.894;2022-08-05T06:00:43;101589.81;;;26.62;71.87
32181;BME280;19172;51.504;3.894;2022-08-05T06:03:12;101592.22;;;27.51;70.82
32181;BME280;19172;51.504;3.894;2022-08-05T06:05:55;101597.66;;;27.67;70.29
32181;BME280;19172;51.504;3.894;2022-08-05T06:08:23;101594.88;;;28.15;67.89
32181;BME280;19172;51.504;3.894;2022-08-05T06:10:57;101607.22;;;27.74;66.97
32181;BME280;19172;51.504;3.894;2022-08-05T06:13:25;101610.69;;;26.43;68.28
32181;BME280;19172;51.504;3.894;2022-08-05T06:15:52;101601.56;;;27.13;69.35
32181;BME280;19172;51.504;3.894;2022-08-05T06:18:40;101607.97;;;27.45;67.42
32181;BME280;19172;51.504;3.894;2022-08-05T06:21:08;101606.09;;;27.94;66.85
32181;BME280;19172;51.504;3.894;2022-08-05T06:23:43;101606.63;;;28.00;65.21
32181;BME280;19172;51.504;3.894;2022-08-05T06:26:11;101612.31;;;27.96;63.36
32181;BME280;19172;51.504;3.894;2022-08-05T06:28:47;101619.31;;;28.31;60.82
32181;BME280;19172;51.504;3.894;2022-08-05T06:31:15;101620.47;;;28.11;62.35
32181;BME280;19172;51.504;3.894;2022-08-05T06:33:44;101611.88;;;28.94;62.03
32181;BME280;19172;51.504;3.894;2022-08-05T06:36:32;101624.00;;;27.82;61.51
32181;BME280;19172;51.504;3.894;2022-08-05T06:39:04;101623.72;;;28.63;60.73
32181;BME280;19172;51.504;3.894;2022-08-05T06:41:31;101624.16;;;29.15;60.23
32181;BME280;19172;51.504;3.894;2022-08-05T06:44:01;101619.09;;;29.09;59.55
32181;BME280;19172;51.504;3.894;2022-08-05T06:46:29;101626.97;;;29.42;58.48
32181;BME280;19172;51.504;3.894;2022-08-05T06:48:58;101618.28;;;29.78;56.70
32181;BME280;19172;51.504;3.894;2022-08-05T06:51:28;101626.13;;;29.27;56.55
32181;BME280;19172;51.504;3.894;2022-08-05T06:53:59;101639.06;;;29.66;56.70
32181;BME280;19172;51.504;3.894;2022-08-05T06:56:30;101628.94;;;28.52;58.13
32181;BME280;19172;51.504;3.894;2022-08-05T06:59:02;101636.78;;;28.11;61.39
32181;BME280;19172;51.504;3.894;2022-08-05T07:01:30;101642.31;;;28.25;63.55
32181;BME280;19172;51.504;3.894;2022-08-05T07:04:00;101642.25;;;29.16;60.79
32181;BME280;19172;51.504;3.894;2022-08-05T07:06:29;101649.38;;;29.33;58.67
32181;BME280;19172;51.504;3.894;2022-08-05T07:08:56;101646.00;;;29.58;56.84
32181;BME280;19172;51.504;3.894;2022-08-05T07:11:25;101652.34;;;28.70;58.43
32181;BME280;19172;51.504;3.894;2022-08-05T07:13:56;101661.13;;;27.50;60.84
32181;BME280;19172;51.504;3.894;2022-08-05T07:16:48;101663.31;;;28.08;61.31
32181;BME280;19172;51.504;3.894;2022-08-05T07:19:36;101668.50;;;28.73;58.78
32181;BME280;19172;51.504;3.894;2022-08-05T07:22:24;101676.00;;;28.38;57.17
32181;BME280;19172;51.504;3.894;2022-08-05T07:24:54;101671.50;;;28.53;56.36
32181;BME280;19172;51.504;3.894;2022-08-05T07:27:22;101686.53;;;28.45;56.91
32181;BME280;19172;51.504;3.894;2022-08-05T07:29:50;101688.00;;;27.88;57.99
32181;BME280;19172;51.504;3.894;2022-08-05T07:32:38;101692.31;;;28.38;57.43
32181;BME280;19172;51.504;3.894;2022-08-05T07:35:10;101690.66;;;28.97;56.02
32181;BME280;19172;51.504;3.894;2022-08-05T07:37:58;101695.56;;;28.45;54.16
32181;BME280;19172;51.504;3.894;2022-08-05T07:40:26;101699.34;;;28.88;55.53
32181;BME280;19172;51.504;3.894;2022-08-05T07:42:59;101698.69;;;28.69;55.47
32181;BME280;19172;51.504;3.894;2022-08-05T07:45:28;101707.97;;;29.97;55.28
32181;BME280;19172;51.504;3.894;2022-08-05T07:48:10;101720.81;;;28.63;55.72
32181;BME280;19172;51.504;3.894;2022-08-05T07:50:38;101721.31;;;27.91;56.72
32181;BME280;19172;51.504;3.894;2022-08-05T07:53:06;101716.94;;;28.82;56.89
32181;BME280;19172;51.504;3.894;2022-08-05T07:55:33;101711.00;;;28.45;56.97
32181;BME280;19172;51.504;3.894;2022-08-05T07:58:11;101723.00;;;27.61;58.07
32181;BME280;19172;51.504;3.894;2022-08-05T08:00:44;101731.81;;;27.81;59.52
32181;BME280;19172;51.504;3.894;2022-08-05T08:03:12;101728.81;;;28.19;58.34
32181;BME280;19172;51.504;3.894;2022-08-05T08:05:42;101730.31;;;28.09;58.31
32181;BME280;19172;51.504;3.894;2022-08-05T08:08:17;101751.00;;;27.46;57.77
32181;BME280;19172;51.504;3.894;2022-08-05T08:10:46;101750.59;;;28.02;55.76
32181;BME280;19172;51.504;3.894;2022-08-05T08:13:15;101745.25;;;27.17;55.05
32181;BME280;19172;51.504;3.894;2022-08-05T08:15:48;101757.03;;;26.82;54.57
32181;BME280;19172;51.504;3.894;2022-08-05T08:18:36;101755.94;;;27.03;52.87
32181;BME280;19172;51.504;3.894;2022-08-05T08:21:04;101758.88;;;27.16;53.12
32181;BME280;19172;51.504;3.894;2022-08-05T08:23:36;101771.28;;;27.56;54.21
32181;BME280;19172;51.504;3.894;2022-08-05T08:26:25;101763.22;;;27.20;54.98
32181;BME280;19172;51.504;3.894;2022-08-05T08:28:53;101762.50;;;27.33;57.16
32181;BME280;19172;51.504;3.894;2022-08-05T08:31:21;101768.59;;;26.50;59.94
32181;BME280;19172;51.504;3.894;2022-08-05T08:33:49;101775.09;;;26.83;60.61
32181;BME280;19172;51.504;3.894;2022-08-05T08:36:18;101786.00;;;26.63;61.20
32181;BME280;19172;51.504;3.894;2022-08-05T08:39:06;101784.22;;;26.99;60.93
32181;BME280;19172;51.504;3.894;2022-08-05T08:41:48;101781.38;;;26.29;63.30
32181;BME280;19172;51.504;3.894;2022-08-05T08:44:19;101791.50;;;26.61;62.82
32181;BME280;19172;51.504;3.894;2022-08-05T08:47:07;101782.28;;;26.47;62.49
32181;BME280;19172;51.504;3.894;2022-08-05T08:49:52;101790.75;;;26.76;61.56
32181;BME280;19172;51.504;3.894;2022-08-05T08:52:34;101807.78;;;26.43;60.57
32181;BME280;19172;51.504;3.894;2022-08-05T08:55:03;101807.44;;;26.50;58.97
32181;BME280;19172;51.504;3.894;2022-08-05T08:57:33;101809.44;;;27.01;57.33
32181;BME280;19172;51.504;3.894;2022-08-05T09:00:09;101810.22;;;26.86;57.17
32181;BME280;19172;51.504;3.894;2022-08-05T09:02:37;101819.72;;;26.76;56.76
32181;BME280;19172;51.504;3.894;2022-08-05T09:05:06;101820.69;;;26.75;56.01
32181;BME280;19172;51.504;3.894;2022-08-05T09:07:45;101823.91;;;26.27;55.86
32181;BME280;19172;51.504;3.894;2022-08-05T09:10:24;101842.09;;;26.25;55.40
32181;BME280;19172;51.504;3.894;2022-08-05T09:12:54;101838.44;;;25.25;54.63
32181;BME280;19172;51.504;3.894;2022-08-05T09:15:23;101848.19;;;25.29;58.47
32181;BME280;19172;51.504;3.894;2022-08-05T09:17:51;101846.28;;;25.11;60.62
32181;BME280;19172;51.504;3.894;2022-08-05T09:20:19;101846.13;;;25.76;61.92
32181;BME280;19172;51.504;3.894;2022-08-05T09:23:05;101857.34;;;25.26;61.95
32181;BME280;19172;51.504;3.894;2022-08-05T09:25:34;101851.31;;;25.40;61.85
32181;BME280;19172;51.504;3.894;2022-08-05T09:28:24;101851.38;;;25.60;63.51
32181;BME280;19172;51.504;3.894;2022-08-05T09:31:05;101853.56;;;25.91;62.18
32181;BME280;19172;51.504;3.894;2022-08-05T09:34:01;101844.47;;;26.12;60.55
32181;BME280;19172;51.504;3.894;2022-08-05T09:39:12;101853.13;;;24.76;61.83
32181;BME280;19172;51.504;3.894;2022-08-05T09:41:58;101864.22;;;25.34;64.65
32181;BME280;19172;51.504;3.894;2022-08-05T09:50:05;101862.41;;;25.76;62.22
32181;BME280;19172;51.504;3.894;2022-08-05T09:52:34;101857.13;;;25.93;61.09
32181;BME280;19172;51.504;3.894;2022-08-05T09:55:10;101874.59;;;26.06;59.52
32181;BME280;19172;51.504;3.894;2022-08-05T09:57:58;101871.78;;;26.08;59.71
32181;BME280;19172;51.504;3.894;2022-08-05T10:00:26;101866.81;;;26.56;58.01
32181;BME280;19172;51.504;3.894;2022-08-05T10:02:56;101870.34;;;26.77;56.10
32181;BME280;19172;51.504;3.894;2022-08-05T10:05:27;101870.72;;;26.88;54.53
32181;BME280;19172;51.504;3.894;2022-08-05T10:07:58;101879.06;;;27.02;53.67
32181;BME280;19172;51.504;3.894;2022-08-05T10:10:46;101888.50;;;26.38;55.10
32181;BME280;19172;51.504;3.894;2022-08-05T10:13:36;101885.50;;;26.25;56.43
32181;BME280;19172;51.504;3.894;2022-08-05T10:18:57;101876.28;;;26.48;57.13
32181;BME280;19172;51.504;3.894;2022-08-05T10:21:25;101891.31;;;27.47;54.83
32181;BME280;19172;51.504;3.894;2022-08-05T10:23:54;101881.16;;;26.40;53.55
32181;BME280;19172;51.504;3.894;2022-08-05T10:26:26;101890.00;;;27.01;51.56
32181;BME280;19172;51.504;3.894;2022-08-05T10:28:58;101892.03;;;27.14;51.64
32181;BME280;19172;51.504;3.894;2022-08-05T10:31:26;101895.88;;;27.80;50.28
32181;BME280;19172;51.504;3.894;2022-08-05T10:34:14;101886.47;;;28.03;48.94
32181;BME280;19172;51.504;3.894;2022-08-05T10:36:46;101897.38;;;27.86;47.48
32181;BME280;19172;51.504;3.894;2022-08-05T10:39:22;101906.28;;;27.72;47.88
32181;BME280;19172;51.504;3.894;2022-08-05T10:42:17;101898.19;;;27.18;48.33
32181;BME280;19172;51.504;3.894;2022-08-05T10:44:49;101901.69;;;27.73;48.24
32181;BME280;19172;51.504;3.894;2022-08-05T10:47:18;101902.66;;;27.89;48.13
32181;BME280;19172;51.504;3.894;2022-08-05T10:52:51;101902.38;;;28.28;48.08
32181;BME280;19172;51.504;3.894;2022-08-05T10:55:26;101896.09;;;28.76;47.84
32181;BME280;19172;51.504;3.894;2022-08-05T10:58:07;101904.59;;;28.70;48.02
32181;BME280;19172;51.504;3.894;2022-08-05T11:00:36;101910.19;;;28.34;47.57
32181;BME280;19172;51.504;3.894;2022-08-05T11:03:10;101912.28;;;27.79;47.75
32181;BME280;19172;51.504;3.894;2022-08-05T11:06:06;101913.47;;;28.41;47.71
32181;BME280;19172;51.504;3.894;2022-08-05T11:09:12;101907.66;;;29.42;46.84
32181;BME280;19172;51.504;3.894;2022-08-05T11:11:45;101916.81;;;28.78;45.87
32181;BME280;19172;51.504;3.894;2022-08-05T11:14:28;101914.81;;;29.59;46.23
32181;BME280;19172;51.504;3.894;2022-08-05T11:20:34;101916.53;;;29.75;45.14
32181;BME280;19172;51.504;3.894;2022-08-05T11:33:36;101937.28;;;28.85;46.64
32181;BME280;19172;51.504;3.894;2022-08-05T11:36:15;101940.53;;;28.92;46.92
32181;BME280;19172;51.504;3.894;2022-08-05T11:39:01;101937.41;;;29.31;45.82
32181;BME280;19172;51.504;3.894;2022-08-05T11:41:29;101945.44;;;28.20;45.47
32181;BME280;19172;51.504;3.894;2022-08-05T11:44:04;101955.06;;;28.10;45.02
32181;BME280;19172;51.504;3.894;2022-08-05T11:47:08;101949.94;;;28.54;45.18
32181;BME280;19172;51.504;3.894;2022-08-05T11:49:42;101957.81;;;28.75;43.87
32181;BME280;19172;51.504;3.894;2022-08-05T11:52:23;101955.31;;;29.35;44.04
32181;BME280;19172;51.504;3.894;2022-08-05T11:54:57;101966.09;;;28.57;43.54
32181;BME280;19172;51.504;3.894;2022-08-05T11:57:29;101967.22;;;28.85;43.73
32181;BME280;19172;51.504;3.894;2022-08-05T12:00:27;101977.75;;;28.43;44.05
32181;BME280;19172;51.504;3.894;2022-08-05T12:02:55;101978.16;;;28.18;45.04
32181;BME280;19172;51.504;3.894;2022-08-05T12:05:25;101980.75;;;27.68;45.91
32181;BME280;19172;51.504;3.894;2022-08-05T12:07:58;101989.78;;;27.86;46.10
32181;BME280;19172;51.504;3.894;2022-08-05T12:10:34;101981.78;;;28.52;45.82
32181;BME280;19172;51.504;3.894;2022-08-05T12:13:06;101989.88;;;28.02;44.03
32181;BME280;19172;51.504;3.894;2022-08-05T12:15:44;101995.66;;;27.78;42.58
32181;BME280;19172;51.504;3.894;2022-08-05T12:18:17;101991.00;;;27.80;44.29
32181;BME280;19172;51.504;3.894;2022-08-05T12:20:45;101999.31;;;27.77;45.19
32181;BME280;19172;51.504;3.894;2022-08-05T12:23:13;102003.13;;;28.59;45.46
32181;BME280;19172;51.504;3.894;2022-08-05T12:25:51;102004.00;;;28.10;45.19
32181;BME280;19172;51.504;3.894;2022-08-05T12:28:34;102009.19;;;27.43;46.23
32181;BME280;19172;51.504;3.894;2022-08-05T12:31:04;102013.78;;;27.05;46.22
32181;BME280;19172;51.504;3.894;2022-08-05T12:33:32;102017.00;;;28.03;44.99
32181;BME280;19172;51.504;3.894;2022-08-05T12:36:05;102015.88;;;27.90;44.09
32181;BME280;19172;51.504;3.894;2022-08-05T12:38:36;102010.81;;;27.82;44.58
32181;BME280;19172;51.504;3.894;2022-08-05T12:41:10;102023.66;;;28.49;44.15
32181;BME280;19172;51.504;3.894;2022-08-05T12:43:55;102021.69;;;28.35;46.11
32181;BME280;19172;51.504;3.894;2022-08-05T12:46:26;102029.34;;;28.27;46.90
32181;BME280;19172;51.504;3.894;2022-08-05T12:49:07;102025.13;;;27.31;48.72
32181;BME280;19172;51.504;3.894;2022-08-05T12:51:50;102032.19;;;26.98;50.73
32181;BME280;19172;51.504;3.894;2022-08-05T12:54:40;102030.75;;;27.47;52.47
32181;BME280;19172;51.504;3.894;2022-08-05T12:57:09;102044.28;;;27.10;50.95
32181;BME280;19172;51.504;3.894;2022-08-05T12:59:50;102039.69;;;26.73;50.14
32181;BME280;19172;51.504;3.894;2022-08-05T13:02:35;102045.47;;;27.42;52.42
32181;BME280;19172;51.504;3.894;2022-08-05T13:05:05;102040.44;;;27.53;51.98
32181;BME280;19172;51.504;3.894;2022-08-05T13:07:33;102055.94;;;26.93;51.17
32181;BME280;19172;51.504;3.894;2022-08-05T13:10:21;102056.84;;;26.73;50.82
32181;BME280;19172;51.504;3.894;2022-08-05T13:12:50;102055.13;;;27.49;51.11
32181;BME280;19172;51.504;3.894;2022-08-05T13:15:29;102060.91;;;27.60;50.73
32181;BME280;19172;51.504;3.894;2022-08-05T13:18:02;102058.78;;;27.66;50.05
32181;BME280;19172;51.504;3.894;2022-08-05T13:20:34;102060.78;;;27.44;50.48
32181;BME280;19172;51.504;3.894;2022-08-05T13:23:07;102058.47;;;27.90;51.50
32181;BME280;19172;51.504;3.894;2022-08-05T13:25:34;102065.78;;;27.53;53.36
32181;BME280;19172;51.504;3.894;2022-08-05T13:28:19;102068.38;;;27.17;53.51
32181;BME280;19172;51.504;3.894;2022-08-05T13:30:48;102069.16;;;27.01;53.18
32181;BME280;19172;51.504;3.894;2022-08-05T13:33:17;102068.41;;;26.97;52.46
32181;BME280;19172;51.504;3.894;2022-08-05T13:36:05;102074.41;;;26.85;50.06
32181;BME280;19172;51.504;3.894;2022-08-05T13:38:33;102073.34;;;27.47;49.66
32181;BME280;19172;51.504;3.894;2022-08-05T13:41:02;102070.88;;;27.41;49.34
32181;BME280;19172;51.504;3.894;2022-08-05T13:43:30;102083.72;;;27.74;49.96
32181;BME280;19172;51.504;3.894;2022-08-05T13:46:13;102087.94;;;26.87;51.19
32181;BME280;19172;51.504;3.894;2022-08-05T13:48:40;102084.19;;;27.47;52.10
32181;BME280;19172;51.504;3.894;2022-08-05T13:51:30;102084.47;;;27.41;53.31
32181;BME280;19172;51.504;3.894;2022-08-05T13:54:06;102082.63;;;28.31;54.16
32181;BME280;19172;51.504;3.894;2022-08-05T13:56:40;102085.81;;;27.69;53.16
32181;BME280;19172;51.504;3.894;2022-08-05T13:59:12;102084.31;;;27.25;54.70
32181;BME280;19172;51.504;3.894;2022-08-05T14:01:47;102094.59;;;27.74;53.88
32181;BME280;19172;51.504;3.894;2022-08-05T14:04:24;102095.38;;;27.95;52.95
32181;BME280;19172;51.504;3.894;2022-08-05T14:07:22;102107.91;;;27.62;53.33
32181;BME280;19172;51.504;3.894;2022-08-05T14:09:53;102114.00;;;26.49;55.22